Aérodrome :
LOGIN :

S'inscrire | Disclaimer

   EN    FR    IT 

 










Légende :    VFR   VFR Marginal   IFR   IFR Intensif   IFR Très Intensif
Visi : 
Plafond : 
>= 8 km
>= 3000ft
5 à 8 km
1000 à 3000 ft
1500m à 5 km
500 à 1000 ft
800 à 1500m
200 à 500 ft
< 800m
< 200 ft
Symboles :   Orages  Brouillard  Fortes neiges  Fortes précipitations  Vent > 20 kt
SIGMETs :   Divers  Orages  Givrage  Turbulence  Onde Orograph.  Cendres Volcan.







- Altitude de l'aérodrome : 461 ft
- Code IATA : WIE


ETOU - Wiesbaden Army

DERNIER METAR :
  • 240756Z AUTO 26010KT 9999 CLR 15/09 A3008 RMK AO2 SLP187 T01470091

METARs EXPIRÉS :
  • 240656Z AUTO 27006KT 9999 FEW037 12/09 A3009 RMK AO2 SLP191 T01220087
  • 240556Z AUTO 28005KT 9999 CLR 11/08 A3007 RMK AO2 SLP184 T01080084 10110 20083 58001

TAF TAF ETOU
Valide du 24 à 03h jusqu'au 25 à 09h UTC


2403/2509 VRB06KT 9999 SKC QNH3004INS
BECMG 2407/2408 27010G15KT 9999 FEW040 QNH2994INS
BECMG 2418/2419 25009KT 9999 FEW040 QNH2985INS TX21/2414Z TN05/2404Z
Pas de NOTAMs connus pour ce terrain.



MET'MAP, la Météo Aéronautique d'un coup d'oeil ! - Copyright ORBIFLY Décembre 2007 - Disclaimer

ORBIFLY MET'MAP TEAM :

Programmation & Développement : Alexandra Zaïnal
Conception & Développement : Baudouin d'Aumeries
Co-Programmation & Développement : Marc-Olivier Méhu
Soutien technique & logistique : Manuel Goepfert

Contact : metmap@orbifly.com




SOURCES & CREDITS :

   NOAA